sensor_id;sensor_type;location;lat;lon;timestamp;P1;durP1;ratioP1;P2;durP2;ratioP2
1436;SDS011;712;51.026;13.792;2023-04-03T00:00:11;5.45;;;1.10;;
1436;SDS011;712;51.026;13.792;2023-04-03T00:02:36;4.38;;;1.00;;
1436;SDS011;712;51.026;13.792;2023-04-03T00:05:01;6.25;;;1.20;;
1436;SDS011;712;51.026;13.792;2023-04-03T00:07:26;5.65;;;1.10;;
1436;SDS011;712;51.026;13.792;2023-04-03T00:09:51;4.70;;;0.88;;
1436;SDS011;712;51.026;13.792;2023-04-03T00:12:16;4.88;;;1.00;;
1436;SDS011;712;51.026;13.792;2023-04-03T00:14:42;2.83;;;0.93;;
1436;SDS011;712;51.026;13.792;2023-04-03T00:17:07;6.22;;;1.27;;
1436;SDS011;712;51.026;13.792;2023-04-03T00:19:32;4.50;;;0.85;;
1436;SDS011;712;51.026;13.792;2023-04-03T00:21:57;4.22;;;1.10;;
1436;SDS011;712;51.026;13.792;2023-04-03T00:24:22;4.90;;;0.98;;
1436;SDS011;712;51.026;13.792;2023-04-03T00:26:47;5.32;;;0.98;;
1436;SDS011;712;51.026;13.792;2023-04-03T00:29:12;4.63;;;1.00;;
1436;SDS011;712;51.026;13.792;2023-04-03T00:31:38;3.97;;;0.85;;
1436;SDS011;712;51.026;13.792;2023-04-03T00:34:03;3.90;;;0.90;;
1436;SDS011;712;51.026;13.792;2023-04-03T00:36:28;6.43;;;1.00;;
1436;SDS011;712;51.026;13.792;2023-04-03T00:38:53;4.13;;;0.80;;
1436;SDS011;712;51.026;13.792;2023-04-03T00:41:18;7.72;;;1.20;;
1436;SDS011;712;51.026;13.792;2023-04-03T00:43:43;2.75;;;0.77;;
1436;SDS011;712;51.026;13.792;2023-04-03T00:46:08;5.63;;;1.23;;
1436;SDS011;712;51.026;13.792;2023-04-03T00:48:48;4.87;;;0.93;;
1436;SDS011;712;51.026;13.792;2023-04-03T00:51:21;5.88;;;0.93;;
1436;SDS011;712;51.026;13.792;2023-04-03T00:56:14;5.05;;;1.00;;
1436;SDS011;712;51.026;13.792;2023-04-03T00:58:41;6.07;;;1.20;;
1436;SDS011;712;51.026;13.792;2023-04-03T01:01:10;6.13;;;1.52;;
1436;SDS011;712;51.026;13.792;2023-04-03T01:03:36;3.55;;;0.82;;
1436;SDS011;712;51.026;13.792;2023-04-03T01:06:02;4.60;;;1.13;;
1436;SDS011;712;51.026;13.792;2023-04-03T01:08:28;3.77;;;0.70;;
1436;SDS011;712;51.026;13.792;2023-04-03T01:10:53;3.67;;;1.00;;
1436;SDS011;712;51.026;13.792;2023-04-03T01:13:21;5.95;;;0.90;;
1436;SDS011;712;51.026;13.792;2023-04-03T01:15:46;5.03;;;1.02;;
1436;SDS011;712;51.026;13.792;2023-04-03T01:18:11;4.63;;;1.10;;
1436;SDS011;712;51.026;13.792;2023-04-03T01:20:42;3.55;;;0.95;;
1436;SDS011;712;51.026;13.792;2023-04-03T01:25:37;4.75;;;1.00;;
1436;SDS011;712;51.026;13.792;2023-04-03T01:28:03;4.00;;;1.02;;
1436;SDS011;712;51.026;13.792;2023-04-03T01:30:31;3.38;;;0.90;;
1436;SDS011;712;51.026;13.792;2023-04-03T01:32:57;3.85;;;0.93;;
1436;SDS011;712;51.026;13.792;2023-04-03T01:35:23;4.63;;;1.00;;
1436;SDS011;712;51.026;13.792;2023-04-03T01:37:48;4.07;;;0.90;;
1436;SDS011;712;51.026;13.792;2023-04-03T01:40:13;4.25;;;0.98;;
1436;SDS011;712;51.026;13.792;2023-04-03T01:42:38;4.17;;;1.10;;
1436;SDS011;712;51.026;13.792;2023-04-03T01:45:03;5.47;;;1.00;;
1436;SDS011;712;51.026;13.792;2023-04-03T01:47:29;4.45;;;0.98;;
1436;SDS011;712;51.026;13.792;2023-04-03T01:49:54;6.03;;;1.20;;
1436;SDS011;712;51.026;13.792;2023-04-03T01:52:19;4.83;;;1.20;;
1436;SDS011;712;51.026;13.792;2023-04-03T01:54:44;4.38;;;1.10;;
1436;SDS011;712;51.026;13.792;2023-04-03T01:57:10;4.07;;;1.00;;
1436;SDS011;712;51.026;13.792;2023-04-03T01:59:35;6.50;;;1.17;;
1436;SDS011;712;51.026;13.792;2023-04-03T02:02:00;5.13;;;0.90;;
1436;SDS011;712;51.026;13.792;2023-04-03T02:04:25;4.40;;;0.93;;
1436;SDS011;712;51.026;13.792;2023-04-03T02:06:50;6.10;;;1.20;;
1436;SDS011;712;51.026;13.792;2023-04-03T02:09:16;3.70;;;1.10;;
1436;SDS011;712;51.026;13.792;2023-04-03T02:11:41;4.57;;;0.90;;
1436;SDS011;712;51.026;13.792;2023-04-03T02:14:06;5.05;;;1.17;;
1436;SDS011;712;51.026;13.792;2023-04-03T02:16:31;4.43;;;1.03;;
1436;SDS011;712;51.026;13.792;2023-04-03T02:18:56;7.50;;;1.20;;
1436;SDS011;712;51.026;13.792;2023-04-03T02:21:22;4.63;;;1.00;;
1436;SDS011;712;51.026;13.792;2023-04-03T02:23:47;3.35;;;0.95;;
1436;SDS011;712;51.026;13.792;2023-04-03T02:26:14;5.23;;;0.87;;
1436;SDS011;712;51.026;13.792;2023-04-03T02:28:39;5.78;;;0.90;;
1436;SDS011;712;51.026;13.792;2023-04-03T02:31:05;4.20;;;1.00;;
1436;SDS011;712;51.026;13.792;2023-04-03T02:33:34;4.78;;;0.90;;
1436;SDS011;712;51.026;13.792;2023-04-03T02:36:01;4.80;;;1.10;;
1436;SDS011;712;51.026;13.792;2023-04-03T02:38:27;5.35;;;1.00;;
1436;SDS011;712;51.026;13.792;2023-04-03T02:40:52;5.20;;;1.00;;
1436;SDS011;712;51.026;13.792;2023-04-03T02:43:17;3.97;;;1.02;;
1436;SDS011;712;51.026;13.792;2023-04-03T02:45:42;3.33;;;0.73;;
1436;SDS011;712;51.026;13.792;2023-04-03T02:48:08;5.65;;;1.48;;
1436;SDS011;712;51.026;13.792;2023-04-03T02:50:33;5.33;;;1.10;;
1436;SDS011;712;51.026;13.792;2023-04-03T02:52:58;4.15;;;0.90;;
1436;SDS011;712;51.026;13.792;2023-04-03T02:55:23;5.30;;;1.10;;
1436;SDS011;712;51.026;13.792;2023-04-03T02:57:48;3.67;;;0.80;;
1436;SDS011;712;51.026;13.792;2023-04-03T03:00:13;5.53;;;1.23;;
1436;SDS011;712;51.026;13.792;2023-04-03T03:02:39;5.97;;;1.17;;
1436;SDS011;712;51.026;13.792;2023-04-03T03:05:04;5.27;;;1.10;;
1436;SDS011;712;51.026;13.792;2023-04-03T03:07:30;6.28;;;1.38;;
1436;SDS011;712;51.026;13.792;2023-04-03T03:09:55;5.88;;;1.00;;
1436;SDS011;712;51.026;13.792;2023-04-03T03:12:20;5.82;;;1.00;;
1436;SDS011;712;51.026;13.792;2023-04-03T03:14:46;5.13;;;1.48;;
1436;SDS011;712;51.026;13.792;2023-04-03T03:17:11;7.47;;;1.15;;
1436;SDS011;712;51.026;13.792;2023-04-03T03:19:37;5.32;;;1.00;;
1436;SDS011;712;51.026;13.792;2023-04-03T03:22:02;3.67;;;1.10;;
1436;SDS011;712;51.026;13.792;2023-04-03T03:24:27;3.60;;;0.77;;
1436;SDS011;712;51.026;13.792;2023-04-03T03:26:52;5.67;;;1.20;;
1436;SDS011;712;51.026;13.792;2023-04-03T03:29:17;3.22;;;1.00;;
1436;SDS011;712;51.026;13.792;2023-04-03T03:31:42;4.03;;;0.88;;
1436;SDS011;712;51.026;13.792;2023-04-03T03:34:07;5.47;;;0.90;;
1436;SDS011;712;51.026;13.792;2023-04-03T03:36:33;6.03;;;1.00;;
1436;SDS011;712;51.026;13.792;2023-04-03T03:38:58;4.93;;;1.10;;
1436;SDS011;712;51.026;13.792;2023-04-03T03:41:23;4.18;;;1.02;;
1436;SDS011;712;51.026;13.792;2023-04-03T03:43:48;5.57;;;1.20;;
1436;SDS011;712;51.026;13.792;2023-04-03T03:46:13;5.47;;;1.25;;
1436;SDS011;712;51.026;13.792;2023-04-03T03:48:38;7.65;;;1.08;;
1436;SDS011;712;51.026;13.792;2023-04-03T03:51:03;7.97;;;1.73;;
1436;SDS011;712;51.026;13.792;2023-04-03T03:53:29;5.75;;;1.08;;
1436;SDS011;712;51.026;13.792;2023-04-03T03:55:54;4.60;;;1.00;;
1436;SDS011;712;51.026;13.792;2023-04-03T03:58:19;4.50;;;1.17;;
1436;SDS011;712;51.026;13.792;2023-04-03T04:00:44;3.70;;;1.00;;
1436;SDS011;712;51.026;13.792;2023-04-03T04:03:09;5.17;;;0.80;;
1436;SDS011;712;51.026;13.792;2023-04-03T04:05:35;8.00;;;1.43;;
1436;SDS011;712;51.026;13.792;2023-04-03T04:08:00;4.20;;;0.90;;
1436;SDS011;712;51.026;13.792;2023-04-03T04:10:25;5.38;;;1.10;;
1436;SDS011;712;51.026;13.792;2023-04-03T04:12:50;6.67;;;1.13;;
1436;SDS011;712;51.026;13.792;2023-04-03T04:15:16;6.03;;;1.40;;
1436;SDS011;712;51.026;13.792;2023-04-03T04:17:41;3.70;;;1.07;;
1436;SDS011;712;51.026;13.792;2023-04-03T04:20:06;5.90;;;1.08;;
1436;SDS011;712;51.026;13.792;2023-04-03T04:22:31;7.65;;;1.20;;
1436;SDS011;712;51.026;13.792;2023-04-03T04:24:57;4.35;;;1.00;;
1436;SDS011;712;51.026;13.792;2023-04-03T04:27:22;5.72;;;1.73;;
1436;SDS011;712;51.026;13.792;2023-04-03T04:29:47;2.75;;;0.77;;
1436;SDS011;712;51.026;13.792;2023-04-03T04:32:12;3.40;;;0.82;;
1436;SDS011;712;51.026;13.792;2023-04-03T04:34:37;5.43;;;1.03;;
1436;SDS011;712;51.026;13.792;2023-04-03T04:37:02;6.40;;;1.13;;
1436;SDS011;712;51.026;13.792;2023-04-03T04:39:27;4.03;;;1.00;;
1436;SDS011;712;51.026;13.792;2023-04-03T04:41:53;4.30;;;0.93;;
1436;SDS011;712;51.026;13.792;2023-04-03T04:44:18;5.25;;;0.90;;
1436;SDS011;712;51.026;13.792;2023-04-03T04:46:43;4.32;;;1.38;;
1436;SDS011;712;51.026;13.792;2023-04-03T04:49:08;5.65;;;0.90;;
1436;SDS011;712;51.026;13.792;2023-04-03T04:51:33;4.97;;;1.20;;
1436;SDS011;712;51.026;13.792;2023-04-03T04:53:58;5.97;;;1.17;;
1436;SDS011;712;51.026;13.792;2023-04-03T04:56:23;4.73;;;0.93;;
1436;SDS011;712;51.026;13.792;2023-04-03T04:58:50;5.70;;;1.05;;
1436;SDS011;712;51.026;13.792;2023-04-03T05:01:15;6.32;;;1.30;;
1436;SDS011;712;51.026;13.792;2023-04-03T05:03:40;4.65;;;1.00;;
1436;SDS011;712;51.026;13.792;2023-04-03T05:06:06;6.97;;;1.23;;
1436;SDS011;712;51.026;13.792;2023-04-03T05:08:31;4.63;;;1.25;;
1436;SDS011;712;51.026;13.792;2023-04-03T05:10:56;8.15;;;1.40;;
1436;SDS011;712;51.026;13.792;2023-04-03T05:13:22;4.90;;;1.30;;
1436;SDS011;712;51.026;13.792;2023-04-03T05:15:47;5.13;;;0.90;;
1436;SDS011;712;51.026;13.792;2023-04-03T05:18:12;8.85;;;1.25;;
1436;SDS011;712;51.026;13.792;2023-04-03T05:20:37;6.15;;;1.25;;
1436;SDS011;712;51.026;13.792;2023-04-03T05:23:03;6.23;;;1.00;;
1436;SDS011;712;51.026;13.792;2023-04-03T05:25:28;5.05;;;1.00;;
1436;SDS011;712;51.026;13.792;2023-04-03T05:27:53;5.53;;;1.23;;
1436;SDS011;712;51.026;13.792;2023-04-03T05:30:18;4.78;;;1.15;;
1436;SDS011;712;51.026;13.792;2023-04-03T05:32:43;3.90;;;1.23;;
1436;SDS011;712;51.026;13.792;2023-04-03T05:35:09;4.20;;;1.13;;
1436;SDS011;712;51.026;13.792;2023-04-03T05:37:34;7.10;;;1.23;;
1436;SDS011;712;51.026;13.792;2023-04-03T05:39:59;6.03;;;1.40;;
1436;SDS011;712;51.026;13.792;2023-04-03T05:42:25;7.60;;;1.35;;
1436;SDS011;712;51.026;13.792;2023-04-03T05:44:50;5.50;;;1.20;;
1436;SDS011;712;51.026;13.792;2023-04-03T05:47:15;5.93;;;1.30;;
1436;SDS011;712;51.026;13.792;2023-04-03T05:49:40;7.13;;;1.52;;
1436;SDS011;712;51.026;13.792;2023-04-03T05:52:09;5.35;;;1.25;;
1436;SDS011;712;51.026;13.792;2023-04-03T05:54:35;7.95;;;1.40;;
1436;SDS011;712;51.026;13.792;2023-04-03T05:57:00;5.57;;;1.20;;
1436;SDS011;712;51.026;13.792;2023-04-03T05:59:25;6.78;;;1.80;;
1436;SDS011;712;51.026;13.792;2023-04-03T06:01:50;4.93;;;1.10;;
1436;SDS011;712;51.026;13.792;2023-04-03T06:04:15;9.17;;;1.50;;
1436;SDS011;712;51.026;13.792;2023-04-03T06:09:09;8.95;;;1.50;;
1436;SDS011;712;51.026;13.792;2023-04-03T06:11:34;7.03;;;1.50;;
1436;SDS011;712;51.026;13.792;2023-04-03T06:14:00;5.35;;;1.38;;
1436;SDS011;712;51.026;13.792;2023-04-03T06:16:25;7.47;;;1.60;;
1436;SDS011;712;51.026;13.792;2023-04-03T06:18:50;5.93;;;1.55;;
1436;SDS011;712;51.026;13.792;2023-04-03T06:21:15;5.50;;;1.58;;
1436;SDS011;712;51.026;13.792;2023-04-03T06:23:41;6.50;;;1.17;;
1436;SDS011;712;51.026;13.792;2023-04-03T06:26:06;7.43;;;1.40;;
1436;SDS011;712;51.026;13.792;2023-04-03T06:28:32;5.67;;;1.33;;
1436;SDS011;712;51.026;13.792;2023-04-03T06:30:57;6.87;;;1.40;;
1436;SDS011;712;51.026;13.792;2023-04-03T06:33:22;5.30;;;1.30;;
1436;SDS011;712;51.026;13.792;2023-04-03T06:35:47;6.37;;;1.30;;
1436;SDS011;712;51.026;13.792;2023-04-03T06:38:12;8.10;;;1.60;;
1436;SDS011;712;51.026;13.792;2023-04-03T06:40:37;6.37;;;1.43;;
1436;SDS011;712;51.026;13.792;2023-04-03T06:43:03;6.47;;;1.30;;
1436;SDS011;712;51.026;13.792;2023-04-03T06:45:28;6.35;;;1.35;;
1436;SDS011;712;51.026;13.792;2023-04-03T06:47:53;7.35;;;1.63;;
1436;SDS011;712;51.026;13.792;2023-04-03T06:50:18;6.13;;;1.40;;
1436;SDS011;712;51.026;13.792;2023-04-03T06:52:44;7.97;;;1.70;;
1436;SDS011;712;51.026;13.792;2023-04-03T06:55:09;5.77;;;1.30;;
1436;SDS011;712;51.026;13.792;2023-04-03T06:57:35;6.25;;;1.40;;
1436;SDS011;712;51.026;13.792;2023-04-03T07:00:00;6.87;;;1.30;;
1436;SDS011;712;51.026;13.792;2023-04-03T07:02:25;5.17;;;1.33;;
1436;SDS011;712;51.026;13.792;2023-04-03T07:04:51;5.28;;;1.40;;
1436;SDS011;712;51.026;13.792;2023-04-03T07:07:16;6.53;;;1.80;;
1436;SDS011;712;51.026;13.792;2023-04-03T07:09:42;9.57;;;1.60;;
1436;SDS011;712;51.026;13.792;2023-04-03T07:12:07;7.93;;;1.92;;
1436;SDS011;712;51.026;13.792;2023-04-03T07:14:32;6.10;;;1.25;;
1436;SDS011;712;51.026;13.792;2023-04-03T07:16:58;6.30;;;1.40;;
1436;SDS011;712;51.026;13.792;2023-04-03T07:19:23;7.93;;;1.70;;
1436;SDS011;712;51.026;13.792;2023-04-03T07:21:49;7.05;;;1.50;;
1436;SDS011;712;51.026;13.792;2023-04-03T07:24:14;5.77;;;1.60;;
1436;SDS011;712;51.026;13.792;2023-04-03T07:26:39;6.37;;;1.67;;
1436;SDS011;712;51.026;13.792;2023-04-03T07:29:04;5.68;;;1.50;;
1436;SDS011;712;51.026;13.792;2023-04-03T07:31:30;6.68;;;1.40;;
1436;SDS011;712;51.026;13.792;2023-04-03T07:33:55;5.90;;;1.30;;
1436;SDS011;712;51.026;13.792;2023-04-03T07:36:21;8.80;;;1.40;;
1436;SDS011;712;51.026;13.792;2023-04-03T07:38:46;6.43;;;1.40;;
1436;SDS011;712;51.026;13.792;2023-04-03T07:41:15;6.63;;;1.52;;
1436;SDS011;712;51.026;13.792;2023-04-03T07:43:42;6.93;;;1.50;;
1436;SDS011;712;51.026;13.792;2023-04-03T07:46:07;6.53;;;1.73;;
1436;SDS011;712;51.026;13.792;2023-04-03T07:48:32;6.77;;;1.50;;
1436;SDS011;712;51.026;13.792;2023-04-03T07:51:01;7.57;;;1.47;;
1436;SDS011;712;51.026;13.792;2023-04-03T07:53:27;7.25;;;1.63;;
1436;SDS011;712;51.026;13.792;2023-04-03T07:55:52;4.30;;;1.40;;
1436;SDS011;712;51.026;13.792;2023-04-03T07:58:20;5.03;;;1.25;;
1436;SDS011;712;51.026;13.792;2023-04-03T08:00:46;5.57;;;1.48;;
1436;SDS011;712;51.026;13.792;2023-04-03T08:03:11;7.05;;;1.80;;
1436;SDS011;712;51.026;13.792;2023-04-03T08:05:38;5.30;;;1.33;;
1436;SDS011;712;51.026;13.792;2023-04-03T08:08:04;4.28;;;1.40;;
1436;SDS011;712;51.026;13.792;2023-04-03T08:10:32;6.95;;;1.50;;
1436;SDS011;712;51.026;13.792;2023-04-03T08:12:57;5.82;;;1.40;;
1436;SDS011;712;51.026;13.792;2023-04-03T08:15:22;9.07;;;1.77;;
1436;SDS011;712;51.026;13.792;2023-04-03T08:17:48;7.53;;;1.40;;
1436;SDS011;712;51.026;13.792;2023-04-03T08:20:13;4.97;;;1.37;;
1436;SDS011;712;51.026;13.792;2023-04-03T08:22:38;6.07;;;1.17;;
1436;SDS011;712;51.026;13.792;2023-04-03T08:25:03;6.20;;;1.40;;
1436;SDS011;712;51.026;13.792;2023-04-03T08:27:28;8.23;;;1.60;;
1436;SDS011;712;51.026;13.792;2023-04-03T08:29:54;8.80;;;1.97;;
1436;SDS011;712;51.026;13.792;2023-04-03T08:32:19;7.72;;;1.70;;
1436;SDS011;712;51.026;13.792;2023-04-03T08:34:44;5.27;;;1.37;;
1436;SDS011;712;51.026;13.792;2023-04-03T08:37:11;7.30;;;1.50;;
1436;SDS011;712;51.026;13.792;2023-04-03T08:39:36;5.22;;;1.45;;
1436;SDS011;712;51.026;13.792;2023-04-03T08:42:02;4.68;;;1.30;;
1436;SDS011;712;51.026;13.792;2023-04-03T08:44:38;6.50;;;1.30;;
1436;SDS011;712;51.026;13.792;2023-04-03T08:47:10;6.53;;;1.60;;
1436;SDS011;712;51.026;13.792;2023-04-03T08:49:39;6.32;;;1.35;;
1436;SDS011;712;51.026;13.792;2023-04-03T08:52:08;4.53;;;1.35;;
1436;SDS011;712;51.026;13.792;2023-04-03T08:54:35;7.00;;;1.42;;
1436;SDS011;712;51.026;13.792;2023-04-03T08:57:03;6.78;;;1.20;;
1436;SDS011;712;51.026;13.792;2023-04-03T08:59:32;5.65;;;1.40;;
1436;SDS011;712;51.026;13.792;2023-04-03T09:01:58;7.28;;;1.50;;
1436;SDS011;712;51.026;13.792;2023-04-03T09:04:23;5.85;;;1.50;;
1436;SDS011;712;51.026;13.792;2023-04-03T09:06:52;4.70;;;1.42;;
1436;SDS011;712;51.026;13.792;2023-04-03T09:12:23;6.05;;;1.13;;
1436;SDS011;712;51.026;13.792;2023-04-03T09:14:57;7.63;;;1.58;;
1436;SDS011;712;51.026;13.792;2023-04-03T09:17:31;8.57;;;2.10;;
1436;SDS011;712;51.026;13.792;2023-04-03T09:20:08;6.47;;;1.55;;
1436;SDS011;712;51.026;13.792;2023-04-03T09:22:36;3.70;;;1.23;;
1436;SDS011;712;51.026;13.792;2023-04-03T09:25:17;6.25;;;1.33;;
1436;SDS011;712;51.026;13.792;2023-04-03T09:27:43;8.15;;;1.50;;
1436;SDS011;712;51.026;13.792;2023-04-03T09:30:12;5.13;;;1.08;;
1436;SDS011;712;51.026;13.792;2023-04-03T09:32:38;7.28;;;1.30;;
1436;SDS011;712;51.026;13.792;2023-04-03T09:35:04;4.57;;;0.90;;
1436;SDS011;712;51.026;13.792;2023-04-03T09:37:42;6.68;;;1.15;;
1436;SDS011;712;51.026;13.792;2023-04-03T09:42:33;4.63;;;1.10;;
1436;SDS011;712;51.026;13.792;2023-04-03T09:45:04;6.03;;;1.02;;
1436;SDS011;712;51.026;13.792;2023-04-03T09:47:31;8.15;;;1.20;;
1436;SDS011;712;51.026;13.792;2023-04-03T09:52:48;5.25;;;1.00;;
1436;SDS011;712;51.026;13.792;2023-04-03T09:55:15;7.43;;;1.10;;
1436;SDS011;712;51.026;13.792;2023-04-03T10:00:10;3.33;;;0.88;;
1436;SDS011;712;51.026;13.792;2023-04-03T10:02:46;3.53;;;0.73;;
1436;SDS011;712;51.026;13.792;2023-04-03T10:08:11;5.28;;;1.08;;
1436;SDS011;712;51.026;13.792;2023-04-03T10:10:43;5.78;;;1.52;;
1436;SDS011;712;51.026;13.792;2023-04-03T10:13:18;4.88;;;0.93;;
1436;SDS011;712;51.026;13.792;2023-04-03T10:15:56;4.20;;;0.93;;
1436;SDS011;712;51.026;13.792;2023-04-03T10:20:49;18.38;;;1.00;;
1436;SDS011;712;51.026;13.792;2023-04-03T10:23:27;4.43;;;0.90;;
1436;SDS011;712;51.026;13.792;2023-04-03T10:26:41;4.57;;;1.00;;
1436;SDS011;712;51.026;13.792;2023-04-03T10:28:53;5.35;;;1.05;;
1436;SDS011;712;51.026;13.792;2023-04-03T10:31:25;5.88;;;1.02;;
1436;SDS011;712;51.026;13.792;2023-04-03T10:34:12;4.05;;;0.80;;
1436;SDS011;712;51.026;13.792;2023-04-03T10:36:44;4.57;;;1.23;;
1436;SDS011;712;51.026;13.792;2023-04-03T10:39:16;6.10;;;0.70;;
1436;SDS011;712;51.026;13.792;2023-04-03T10:42:02;5.75;;;0.80;;
1436;SDS011;712;51.026;13.792;2023-04-03T10:44:38;3.63;;;0.70;;
1436;SDS011;712;51.026;13.792;2023-04-03T10:49:50;5.78;;;0.88;;
1436;SDS011;712;51.026;13.792;2023-04-03T10:52:20;4.95;;;0.90;;
1436;SDS011;712;51.026;13.792;2023-04-03T10:54:53;4.65;;;0.60;;
1436;SDS011;712;51.026;13.792;2023-04-03T10:57:20;2.20;;;0.73;;
1436;SDS011;712;51.026;13.792;2023-04-03T10:59:51;3.53;;;0.70;;
1436;SDS011;712;51.026;13.792;2023-04-03T11:05:04;4.20;;;0.80;;
1436;SDS011;712;51.026;13.792;2023-04-03T11:07:34;3.17;;;0.70;;
1436;SDS011;712;51.026;13.792;2023-04-03T11:12:46;3.13;;;0.68;;
1436;SDS011;712;51.026;13.792;2023-04-03T11:15:15;3.13;;;0.80;;
1436;SDS011;712;51.026;13.792;2023-04-03T11:17:45;3.65;;;0.73;;
1436;SDS011;712;51.026;13.792;2023-04-03T11:20:18;5.20;;;0.90;;
1436;SDS011;712;51.026;13.792;2023-04-03T11:22:47;3.72;;;0.85;;
1436;SDS011;712;51.026;13.792;2023-04-03T11:25:15;2.72;;;0.70;;
1436;SDS011;712;51.026;13.792;2023-04-03T11:27:54;2.63;;;0.77;;
1436;SDS011;712;51.026;13.792;2023-04-03T11:30:30;2.58;;;0.70;;
1436;SDS011;712;51.026;13.792;2023-04-03T11:33:00;4.78;;;0.90;;
1436;SDS011;712;51.026;13.792;2023-04-03T11:37:55;3.38;;;0.65;;
1436;SDS011;712;51.026;13.792;2023-04-03T11:40:28;3.08;;;0.73;;
1436;SDS011;712;51.026;13.792;2023-04-03T11:43:01;4.60;;;0.80;;
1436;SDS011;712;51.026;13.792;2023-04-03T11:45:35;3.60;;;0.60;;
1436;SDS011;712;51.026;13.792;2023-04-03T11:48:05;4.35;;;0.73;;
1436;SDS011;712;51.026;13.792;2023-04-03T11:52:57;3.13;;;0.77;;
1436;SDS011;712;51.026;13.792;2023-04-03T12:03:29;5.15;;;0.90;;
1436;SDS011;712;51.026;13.792;2023-04-03T12:05:52;5.47;;;0.90;;
1436;SDS011;712;51.026;13.792;2023-04-03T12:08:25;4.88;;;1.00;;
1436;SDS011;712;51.026;13.792;2023-04-03T12:13:39;4.80;;;0.70;;
1436;SDS011;712;51.026;13.792;2023-04-03T12:18:43;4.93;;;0.80;;
1436;SDS011;712;51.026;13.792;2023-04-03T12:21:10;3.22;;;0.60;;
1436;SDS011;712;51.026;13.792;2023-04-03T12:23:36;4.32;;;0.70;;
1436;SDS011;712;51.026;13.792;2023-04-03T12:26:24;2.85;;;0.70;;
1436;SDS011;712;51.026;13.792;2023-04-03T12:28:51;4.05;;;0.90;;
1436;SDS011;712;51.026;13.792;2023-04-03T12:31:18;4.47;;;0.77;;
1436;SDS011;712;51.026;13.792;2023-04-03T12:33:48;3.92;;;1.00;;
1436;SDS011;712;51.026;13.792;2023-04-03T12:36:26;4.50;;;1.13;;
1436;SDS011;712;51.026;13.792;2023-04-03T12:38:57;4.15;;;0.73;;
1436;SDS011;712;51.026;13.792;2023-04-03T12:41:37;4.53;;;0.80;;
1436;SDS011;712;51.026;13.792;2023-04-03T12:46:42;3.75;;;0.80;;
1436;SDS011;712;51.026;13.792;2023-04-03T12:51:34;3.67;;;0.80;;
1436;SDS011;712;51.026;13.792;2023-04-03T12:54:12;3.20;;;0.90;;
1436;SDS011;712;51.026;13.792;2023-04-03T12:56:38;5.18;;;1.00;;
1436;SDS011;712;51.026;13.792;2023-04-03T13:01:42;3.35;;;0.90;;
1436;SDS011;712;51.026;13.792;2023-04-03T13:04:08;3.45;;;0.80;;
1436;SDS011;712;51.026;13.792;2023-04-03T13:06:39;3.53;;;0.70;;
1436;SDS011;712;51.026;13.792;2023-04-03T13:09:05;4.25;;;1.00;;
1436;SDS011;712;51.026;13.792;2023-04-03T13:11:32;4.95;;;0.73;;
1436;SDS011;712;51.026;13.792;2023-04-03T13:14:01;4.65;;;0.90;;
1436;SDS011;712;51.026;13.792;2023-04-03T13:16:28;4.63;;;1.00;;
1436;SDS011;712;51.026;13.792;2023-04-03T13:18:54;4.80;;;0.93;;
1436;SDS011;712;51.026;13.792;2023-04-03T13:21:20;4.57;;;1.20;;
1436;SDS011;712;51.026;13.792;2023-04-03T13:23:48;3.92;;;0.80;;
1436;SDS011;712;51.026;13.792;2023-04-03T13:26:15;2.72;;;0.70;;
1436;SDS011;712;51.026;13.792;2023-04-03T13:28:42;4.47;;;0.90;;
1436;SDS011;712;51.026;13.792;2023-04-03T13:33:45;5.05;;;0.90;;
1436;SDS011;712;51.026;13.792;2023-04-03T13:36:17;2.83;;;0.80;;
1436;SDS011;712;51.026;13.792;2023-04-03T13:38:42;4.18;;;0.90;;
1436;SDS011;712;51.026;13.792;2023-04-03T13:41:25;4.80;;;1.38;;
1436;SDS011;712;51.026;13.792;2023-04-03T13:43:50;3.13;;;0.80;;
1436;SDS011;712;51.026;13.792;2023-04-03T13:48:42;4.15;;;0.90;;
1436;SDS011;712;51.026;13.792;2023-04-03T13:53:42;4.50;;;0.90;;
1436;SDS011;712;51.026;13.792;2023-04-03T13:56:08;2.88;;;0.73;;
1436;SDS011;712;51.026;13.792;2023-04-03T14:01:06;3.38;;;0.98;;
1436;SDS011;712;51.026;13.792;2023-04-03T14:03:33;3.85;;;0.93;;
1436;SDS011;712;51.026;13.792;2023-04-03T14:06:04;3.95;;;0.90;;
1436;SDS011;712;51.026;13.792;2023-04-03T14:08:30;4.47;;;0.82;;
1436;SDS011;712;51.026;13.792;2023-04-03T14:10:55;2.45;;;0.70;;
1436;SDS011;712;51.026;13.792;2023-04-03T14:13:20;2.92;;;0.65;;
1436;SDS011;712;51.026;13.792;2023-04-03T14:15:46;2.10;;;0.70;;
1436;SDS011;712;51.026;13.792;2023-04-03T14:18:14;3.53;;;0.80;;
1436;SDS011;712;51.026;13.792;2023-04-03T14:20:40;3.58;;;0.88;;
1436;SDS011;712;51.026;13.792;2023-04-03T14:23:05;5.07;;;0.90;;
1436;SDS011;712;51.026;13.792;2023-04-03T14:25:31;2.25;;;0.70;;
1436;SDS011;712;51.026;13.792;2023-04-03T14:27:56;3.65;;;0.80;;
1436;SDS011;712;51.026;13.792;2023-04-03T14:30:25;2.55;;;0.80;;
1436;SDS011;712;51.026;13.792;2023-04-03T14:32:50;3.58;;;0.95;;
1436;SDS011;712;51.026;13.792;2023-04-03T14:35:16;3.45;;;0.75;;
1436;SDS011;712;51.026;13.792;2023-04-03T14:37:42;4.18;;;0.90;;
1436;SDS011;712;51.026;13.792;2023-04-03T14:40:08;4.63;;;0.90;;
1436;SDS011;712;51.026;13.792;2023-04-03T14:42:35;2.58;;;0.80;;
1436;SDS011;712;51.026;13.792;2023-04-03T14:45:01;5.45;;;1.70;;
1436;SDS011;712;51.026;13.792;2023-04-03T14:47:27;3.53;;;0.82;;
1436;SDS011;712;51.026;13.792;2023-04-03T14:49:52;6.15;;;0.95;;
1436;SDS011;712;51.026;13.792;2023-04-03T14:52:29;9.18;;;1.13;;
1436;SDS011;712;51.026;13.792;2023-04-03T14:54:55;3.42;;;0.70;;
1436;SDS011;712;51.026;13.792;2023-04-03T14:57:21;3.83;;;0.90;;
1436;SDS011;712;51.026;13.792;2023-04-03T14:59:48;4.40;;;0.60;;
1436;SDS011;712;51.026;13.792;2023-04-03T15:02:30;4.50;;;1.10;;
1436;SDS011;712;51.026;13.792;2023-04-03T15:04:56;6.47;;;0.90;;
1436;SDS011;712;51.026;13.792;2023-04-03T15:07:22;3.70;;;0.80;;
1436;SDS011;712;51.026;13.792;2023-04-03T15:09:48;4.57;;;0.98;;
1436;SDS011;712;51.026;13.792;2023-04-03T15:12:13;3.80;;;0.77;;
1436;SDS011;712;51.026;13.792;2023-04-03T15:14:38;3.50;;;0.70;;
1436;SDS011;712;51.026;13.792;2023-04-03T15:17:04;4.13;;;0.70;;
1436;SDS011;712;51.026;13.792;2023-04-03T15:19:31;3.47;;;0.90;;
1436;SDS011;712;51.026;13.792;2023-04-03T15:21:59;2.75;;;0.77;;
1436;SDS011;712;51.026;13.792;2023-04-03T15:24:24;4.53;;;0.87;;
1436;SDS011;712;51.026;13.792;2023-04-03T15:26:50;4.32;;;0.90;;
1436;SDS011;712;51.026;13.792;2023-04-03T15:29:15;7.43;;;1.00;;
1436;SDS011;712;51.026;13.792;2023-04-03T15:31:40;4.50;;;0.93;;
1436;SDS011;712;51.026;13.792;2023-04-03T15:34:05;2.28;;;0.77;;
1436;SDS011;712;51.026;13.792;2023-04-03T15:36:30;3.75;;;0.75;;
1436;SDS011;712;51.026;13.792;2023-04-03T15:38:55;3.72;;;0.73;;
1436;SDS011;712;51.026;13.792;2023-04-03T15:41:20;3.73;;;0.80;;
1436;SDS011;712;51.026;13.792;2023-04-03T15:43:46;4.63;;;0.90;;
1436;SDS011;712;51.026;13.792;2023-04-03T15:46:11;3.60;;;0.80;;
1436;SDS011;712;51.026;13.792;2023-04-03T15:48:37;3.95;;;0.80;;
1436;SDS011;712;51.026;13.792;2023-04-03T15:51:02;4.80;;;0.80;;
1436;SDS011;712;51.026;13.792;2023-04-03T15:53:28;4.13;;;0.90;;
1436;SDS011;712;51.026;13.792;2023-04-03T15:55:54;6.32;;;1.10;;
1436;SDS011;712;51.026;13.792;2023-04-03T15:58:19;5.00;;;0.80;;
1436;SDS011;712;51.026;13.792;2023-04-03T16:00:44;2.40;;;0.73;;
1436;SDS011;712;51.026;13.792;2023-04-03T16:03:11;2.57;;;0.63;;
1436;SDS011;712;51.026;13.792;2023-04-03T16:05:37;4.57;;;0.90;;
1436;SDS011;712;51.026;13.792;2023-04-03T16:08:03;3.35;;;0.70;;
1436;SDS011;712;51.026;13.792;2023-04-03T16:10:28;3.80;;;0.88;;
1436;SDS011;712;51.026;13.792;2023-04-03T16:12:54;3.28;;;0.73;;
1436;SDS011;712;51.026;13.792;2023-04-03T16:15:19;4.20;;;0.90;;
1436;SDS011;712;51.026;13.792;2023-04-03T16:17:44;5.03;;;0.90;;
1436;SDS011;712;51.026;13.792;2023-04-03T16:20:10;3.63;;;0.90;;